sensor_id;sensor_type;location;lat;lon;timestamp;temperature;humidity
62575;DHT22;53112;45.602;11.904;2022-08-21T00:01:06;24.30;61.80
62575;DHT22;53112;45.602;11.904;2022-08-21T00:03:35;24.20;61.70
62575;DHT22;53112;45.602;11.904;2022-08-21T00:06:02;24.20;61.60
62575;DHT22;53112;45.602;11.904;2022-08-21T00:08:28;24.40;61.20
62575;DHT22;53112;45.602;11.904;2022-08-21T00:10:54;24.30;60.70
62575;DHT22;53112;45.602;11.904;2022-08-21T00:13:20;24.30;60.60
62575;DHT22;53112;45.602;11.904;2022-08-21T00:15:47;24.40;60.30
62575;DHT22;53112;45.602;11.904;2022-08-21T00:18:14;24.50;59.90
62575;DHT22;53112;45.602;11.904;2022-08-21T00:20:41;24.20;62.00
62575;DHT22;53112;45.602;11.904;2022-08-21T00:23:08;24.00;62.10
62575;DHT22;53112;45.602;11.904;2022-08-21T00:25:35;24.10;61.00
62575;DHT22;53112;45.602;11.904;2022-08-21T00:28:01;24.10;61.00
62575;DHT22;53112;45.602;11.904;2022-08-21T00:30:28;24.40;60.10
62575;DHT22;53112;45.602;11.904;2022-08-21T00:32:56;24.40;60.10
62575;DHT22;53112;45.602;11.904;2022-08-21T00:35:29;24.40;59.90
62575;DHT22;53112;45.602;11.904;2022-08-21T00:37:56;24.40;59.70
62575;DHT22;53112;45.602;11.904;2022-08-21T00:40:31;24.10;61.20
62575;DHT22;53112;45.602;11.904;2022-08-21T00:43:06;23.70;62.90
62575;DHT22;53112;45.602;11.904;2022-08-21T00:45:33;23.70;62.50
62575;DHT22;53112;45.602;11.904;2022-08-21T00:48:00;23.80;62.50
62575;DHT22;53112;45.602;11.904;2022-08-21T00:50:30;23.90;61.60
62575;DHT22;53112;45.602;11.904;2022-08-21T00:52:58;24.00;61.30
62575;DHT22;53112;45.602;11.904;2022-08-21T00:55:26;24.10;61.20
62575;DHT22;53112;45.602;11.904;2022-08-21T00:57:56;24.00;61.20
62575;DHT22;53112;45.602;11.904;2022-08-21T01:00:30;23.80;61.50
62575;DHT22;53112;45.602;11.904;2022-08-21T01:02:57;23.90;60.80
62575;DHT22;53112;45.602;11.904;2022-08-21T01:05:25;24.00;60.90
62575;DHT22;53112;45.602;11.904;2022-08-21T01:07:53;24.00;60.80
62575;DHT22;53112;45.602;11.904;2022-08-21T01:10:19;24.00;60.10
62575;DHT22;53112;45.602;11.904;2022-08-21T01:12:46;23.70;61.40
62575;DHT22;53112;45.602;11.904;2022-08-21T01:15:13;23.60;61.60
62575;DHT22;53112;45.602;11.904;2022-08-21T01:17:41;23.80;61.00
62575;DHT22;53112;45.602;11.904;2022-08-21T01:20:10;23.70;61.40
62575;DHT22;53112;45.602;11.904;2022-08-21T01:22:37;23.80;61.20
62575;DHT22;53112;45.602;11.904;2022-08-21T01:25:06;23.60;61.90
62575;DHT22;53112;45.602;11.904;2022-08-21T01:27:32;23.60;62.20
62575;DHT22;53112;45.602;11.904;2022-08-21T01:30:09;23.40;62.90
62575;DHT22;53112;45.602;11.904;2022-08-21T01:32:36;23.50;62.20
62575;DHT22;53112;45.602;11.904;2022-08-21T01:35:03;23.50;62.60
62575;DHT22;53112;45.602;11.904;2022-08-21T01:37:29;23.60;62.20
62575;DHT22;53112;45.602;11.904;2022-08-21T01:39:55;23.60;62.30
62575;DHT22;53112;45.602;11.904;2022-08-21T01:42:20;23.60;62.20
62575;DHT22;53112;45.602;11.904;2022-08-21T01:44:46;23.20;64.40
62575;DHT22;53112;45.602;11.904;2022-08-21T01:47:14;22.70;66.40
62575;DHT22;53112;45.602;11.904;2022-08-21T01:49:41;22.80;66.50
62575;DHT22;53112;45.602;11.904;2022-08-21T01:52:08;22.90;64.80
62575;DHT22;53112;45.602;11.904;2022-08-21T01:54:34;23.20;63.50
62575;DHT22;53112;45.602;11.904;2022-08-21T01:57:01;23.20;63.70
62575;DHT22;53112;45.602;11.904;2022-08-21T01:59:27;23.30;62.80
62575;DHT22;53112;45.602;11.904;2022-08-21T02:01:54;23.40;62.20
62575;DHT22;53112;45.602;11.904;2022-08-21T02:04:20;23.40;62.10
62575;DHT22;53112;45.602;11.904;2022-08-21T02:06:47;23.30;62.10
62575;DHT22;53112;45.602;11.904;2022-08-21T02:09:13;23.40;61.90
62575;DHT22;53112;45.602;11.904;2022-08-21T02:11:40;23.30;62.40
62575;DHT22;53112;45.602;11.904;2022-08-21T02:14:10;23.30;62.80
62575;DHT22;53112;45.602;11.904;2022-08-21T02:16:38;23.20;63.10
62575;DHT22;53112;45.602;11.904;2022-08-21T02:19:05;23.10;62.80
62575;DHT22;53112;45.602;11.904;2022-08-21T02:21:31;23.10;62.40
62575;DHT22;53112;45.602;11.904;2022-08-21T02:23:57;23.10;62.40
62575;DHT22;53112;45.602;11.904;2022-08-21T02:26:23;23.10;62.80
62575;DHT22;53112;45.602;11.904;2022-08-21T02:28:49;23.00;63.20
62575;DHT22;53112;45.602;11.904;2022-08-21T02:31:15;22.90;62.70
62575;DHT22;53112;45.602;11.904;2022-08-21T02:33:41;23.00;62.80
62575;DHT22;53112;45.602;11.904;2022-08-21T02:36:09;22.90;63.20
62575;DHT22;53112;45.602;11.904;2022-08-21T02:38:38;22.90;63.60
62575;DHT22;53112;45.602;11.904;2022-08-21T02:41:07;22.90;63.50
62575;DHT22;53112;45.602;11.904;2022-08-21T02:43:33;22.80;63.60
62575;DHT22;53112;45.602;11.904;2022-08-21T02:46:00;22.80;63.20
62575;DHT22;53112;45.602;11.904;2022-08-21T02:48:28;22.80;63.20
62575;DHT22;53112;45.602;11.904;2022-08-21T02:51:06;22.80;63.80
62575;DHT22;53112;45.602;11.904;2022-08-21T02:53:33;22.60;65.00
62575;DHT22;53112;45.602;11.904;2022-08-21T02:56:03;22.10;68.00
62575;DHT22;53112;45.602;11.904;2022-08-21T02:58:35;21.90;68.90
62575;DHT22;53112;45.602;11.904;2022-08-21T03:01:03;21.90;68.20
62575;DHT22;53112;45.602;11.904;2022-08-21T03:03:29;22.10;67.10
62575;DHT22;53112;45.602;11.904;2022-08-21T03:05:56;22.40;65.60
62575;DHT22;53112;45.602;11.904;2022-08-21T03:08:22;22.60;64.40
62575;DHT22;53112;45.602;11.904;2022-08-21T03:10:51;22.70;63.90
62575;DHT22;53112;45.602;11.904;2022-08-21T03:13:19;22.60;63.60
62575;DHT22;53112;45.602;11.904;2022-08-21T03:15:47;22.70;63.50
62575;DHT22;53112;45.602;11.904;2022-08-21T03:18:13;22.60;64.30
62575;DHT22;53112;45.602;11.904;2022-08-21T03:20:41;22.50;64.30
62575;DHT22;53112;45.602;11.904;2022-08-21T03:23:07;22.50;63.70
62575;DHT22;53112;45.602;11.904;2022-08-21T03:25:34;22.60;63.50
62575;DHT22;53112;45.602;11.904;2022-08-21T03:28:02;22.50;63.80
62575;DHT22;53112;45.602;11.904;2022-08-21T03:30:29;22.20;66.70
62575;DHT22;53112;45.602;11.904;2022-08-21T03:32:58;21.90;67.70
62575;DHT22;53112;45.602;11.904;2022-08-21T03:35:26;22.10;66.10
62575;DHT22;53112;45.602;11.904;2022-08-21T03:37:52;22.20;65.50
62575;DHT22;53112;45.602;11.904;2022-08-21T03:40:20;22.20;66.10
62575;DHT22;53112;45.602;11.904;2022-08-21T03:42:47;22.30;65.00
62575;DHT22;53112;45.602;11.904;2022-08-21T03:45:15;22.40;64.40
62575;DHT22;53112;45.602;11.904;2022-08-21T03:47:55;22.40;64.30
62575;DHT22;53112;45.602;11.904;2022-08-21T03:50:23;22.40;64.10
62575;DHT22;53112;45.602;11.904;2022-08-21T03:52:49;22.30;64.60
62575;DHT22;53112;45.602;11.904;2022-08-21T03:55:16;22.30;64.40
62575;DHT22;53112;45.602;11.904;2022-08-21T03:57:42;21.90;67.20
62575;DHT22;53112;45.602;11.904;2022-08-21T04:00:09;21.70;67.80
62575;DHT22;53112;45.602;11.904;2022-08-21T04:02:38;21.80;67.00
62575;DHT22;53112;45.602;11.904;2022-08-21T04:05:06;22.00;65.50
62575;DHT22;53112;45.602;11.904;2022-08-21T04:07:32;22.10;65.10
62575;DHT22;53112;45.602;11.904;2022-08-21T04:09:58;22.10;65.20
62575;DHT22;53112;45.602;11.904;2022-08-21T04:12:24;22.10;65.60
62575;DHT22;53112;45.602;11.904;2022-08-21T04:14:50;22.10;65.70
62575;DHT22;53112;45.602;11.904;2022-08-21T04:17:19;22.10;64.90
62575;DHT22;53112;45.602;11.904;2022-08-21T04:19:45;21.90;67.50
62575;DHT22;53112;45.602;11.904;2022-08-21T04:22:11;21.60;67.80
62575;DHT22;53112;45.602;11.904;2022-08-21T04:24:37;21.90;66.60
62575;DHT22;53112;45.602;11.904;2022-08-21T04:27:03;21.90;66.00
62575;DHT22;53112;45.602;11.904;2022-08-21T04:29:29;21.90;66.10
62575;DHT22;53112;45.602;11.904;2022-08-21T04:31:55;22.00;65.40
62575;DHT22;53112;45.602;11.904;2022-08-21T04:34:21;21.70;67.70
62575;DHT22;53112;45.602;11.904;2022-08-21T04:36:47;21.60;68.20
62575;DHT22;53112;45.602;11.904;2022-08-21T04:39:13;21.50;69.70
62575;DHT22;53112;45.602;11.904;2022-08-21T04:41:39;21.40;69.40
62575;DHT22;53112;45.602;11.904;2022-08-21T04:44:05;21.40;68.70
62575;DHT22;53112;45.602;11.904;2022-08-21T04:46:32;21.70;67.90
62575;DHT22;53112;45.602;11.904;2022-08-21T04:48:58;21.90;66.70
62575;DHT22;53112;45.602;11.904;2022-08-21T04:51:29;22.10;65.70
62575;DHT22;53112;45.602;11.904;2022-08-21T04:54:17;22.30;64.90
62575;DHT22;53112;45.602;11.904;2022-08-21T04:56:51;22.20;65.50
62575;DHT22;53112;45.602;11.904;2022-08-21T04:59:22;22.10;66.00
62575;DHT22;53112;45.602;11.904;2022-08-21T05:01:51;22.20;65.70
62575;DHT22;53112;45.602;11.904;2022-08-21T05:04:21;22.50;64.40
62575;DHT22;53112;45.602;11.904;2022-08-21T05:06:49;22.60;64.40
62575;DHT22;53112;45.602;11.904;2022-08-21T05:09:17;22.60;64.40
62575;DHT22;53112;45.602;11.904;2022-08-21T05:11:44;22.90;63.80
62575;DHT22;53112;45.602;11.904;2022-08-21T05:14:12;23.00;63.60
62575;DHT22;53112;45.602;11.904;2022-08-21T05:16:38;23.10;63.30
62575;DHT22;53112;45.602;11.904;2022-08-21T05:19:05;23.40;62.80
62575;DHT22;53112;45.602;11.904;2022-08-21T05:21:33;23.60;62.30
62575;DHT22;53112;45.602;11.904;2022-08-21T05:23:59;23.80;61.30
62575;DHT22;53112;45.602;11.904;2022-08-21T05:26:25;24.10;61.80
62575;DHT22;53112;45.602;11.904;2022-08-21T05:28:51;24.10;61.00
62575;DHT22;53112;45.602;11.904;2022-08-21T05:31:18;24.30;61.20
62575;DHT22;53112;45.602;11.904;2022-08-21T05:33:44;24.40;61.00
62575;DHT22;53112;45.602;11.904;2022-08-21T05:36:10;24.50;60.50
62575;DHT22;53112;45.602;11.904;2022-08-21T05:38:35;24.80;60.00
62575;DHT22;53112;45.602;11.904;2022-08-21T05:41:01;24.80;58.70
62575;DHT22;53112;45.602;11.904;2022-08-21T05:43:27;25.10;58.30
62575;DHT22;53112;45.602;11.904;2022-08-21T05:45:53;25.10;58.30
62575;DHT22;53112;45.602;11.904;2022-08-21T05:48:21;25.30;57.90
62575;DHT22;53112;45.602;11.904;2022-08-21T05:50:49;25.60;57.50
62575;DHT22;53112;45.602;11.904;2022-08-21T05:53:17;25.70;57.10
62575;DHT22;53112;45.602;11.904;2022-08-21T05:55:44;25.80;56.00
62575;DHT22;53112;45.602;11.904;2022-08-21T05:58:11;25.60;56.90
62575;DHT22;53112;45.602;11.904;2022-08-21T06:00:37;25.70;57.00
62575;DHT22;53112;45.602;11.904;2022-08-21T06:03:03;25.80;56.20
62575;DHT22;53112;45.602;11.904;2022-08-21T06:05:30;25.60;57.10
62575;DHT22;53112;45.602;11.904;2022-08-21T06:07:56;25.80;56.60
62575;DHT22;53112;45.602;11.904;2022-08-21T06:10:22;26.10;56.10
62575;DHT22;53112;45.602;11.904;2022-08-21T06:12:53;26.10;56.30
62575;DHT22;53112;45.602;11.904;2022-08-21T06:15:20;26.10;55.40
62575;DHT22;53112;45.602;11.904;2022-08-21T06:17:46;26.00;56.10
62575;DHT22;53112;45.602;11.904;2022-08-21T06:20:11;26.30;55.90
62575;DHT22;53112;45.602;11.904;2022-08-21T06:22:38;26.70;54.90
62575;DHT22;53112;45.602;11.904;2022-08-21T06:25:04;26.90;53.30
62575;DHT22;53112;45.602;11.904;2022-08-21T06:27:30;26.80;53.90
62575;DHT22;53112;45.602;11.904;2022-08-21T06:29:57;26.90;53.90
62575;DHT22;53112;45.602;11.904;2022-08-21T06:32:23;27.10;53.30
62575;DHT22;53112;45.602;11.904;2022-08-21T06:34:49;27.10;52.30
62575;DHT22;53112;45.602;11.904;2022-08-21T06:37:15;27.40;51.70
62575;DHT22;53112;45.602;11.904;2022-08-21T06:39:41;27.60;52.40
62575;DHT22;53112;45.602;11.904;2022-08-21T06:42:14;27.70;51.50
62575;DHT22;53112;45.602;11.904;2022-08-21T06:44:40;27.70;50.80
62575;DHT22;53112;45.602;11.904;2022-08-21T06:47:05;27.70;50.40
62575;DHT22;53112;45.602;11.904;2022-08-21T06:49:32;27.60;50.30
62575;DHT22;53112;45.602;11.904;2022-08-21T06:51:57;27.90;50.10
62575;DHT22;53112;45.602;11.904;2022-08-21T06:54:23;28.20;49.90
62575;DHT22;53112;45.602;11.904;2022-08-21T06:56:49;28.60;49.70
62575;DHT22;53112;45.602;11.904;2022-08-21T06:59:15;28.80;48.80
62575;DHT22;53112;45.602;11.904;2022-08-21T07:01:41;29.10;47.80
62575;DHT22;53112;45.602;11.904;2022-08-21T07:04:07;29.30;47.70
62575;DHT22;53112;45.602;11.904;2022-08-21T07:06:33;29.40;45.50
62575;DHT22;53112;45.602;11.904;2022-08-21T07:08:59;29.60;45.20
62575;DHT22;53112;45.602;11.904;2022-08-21T07:11:27;30.00;45.00
62575;DHT22;53112;45.602;11.904;2022-08-21T07:13:53;30.10;45.00
62575;DHT22;53112;45.602;11.904;2022-08-21T07:16:20;30.60;44.40
62575;DHT22;53112;45.602;11.904;2022-08-21T07:18:46;30.70;42.20
62575;DHT22;53112;45.602;11.904;2022-08-21T07:21:13;31.20;41.90
62575;DHT22;53112;45.602;11.904;2022-08-21T07:23:42;31.60;41.60
62575;DHT22;53112;45.602;11.904;2022-08-21T07:26:12;31.60;39.50
62575;DHT22;53112;45.602;11.904;2022-08-21T07:28:38;32.10;38.80
62575;DHT22;53112;45.602;11.904;2022-08-21T07:31:05;32.60;36.70
62575;DHT22;53112;45.602;11.904;2022-08-21T07:33:34;33.00;36.60
62575;DHT22;53112;45.602;11.904;2022-08-21T07:36:01;33.10;37.10
62575;DHT22;53112;45.602;11.904;2022-08-21T07:38:28;33.50;36.80
62575;DHT22;53112;45.602;11.904;2022-08-21T07:40:55;33.60;36.00
62575;DHT22;53112;45.602;11.904;2022-08-21T07:43:24;33.90;36.10
62575;DHT22;53112;45.602;11.904;2022-08-21T07:45:51;34.30;34.60
62575;DHT22;53112;45.602;11.904;2022-08-21T07:48:17;34.20;34.70
62575;DHT22;53112;45.602;11.904;2022-08-21T07:50:43;34.40;35.70
62575;DHT22;53112;45.602;11.904;2022-08-21T07:53:09;34.60;36.30
62575;DHT22;53112;45.602;11.904;2022-08-21T07:55:35;34.60;34.90
62575;DHT22;53112;45.602;11.904;2022-08-21T07:58:01;34.80;35.40
62575;DHT22;53112;45.602;11.904;2022-08-21T08:00:28;35.20;34.20
62575;DHT22;53112;45.602;11.904;2022-08-21T08:02:55;35.30;34.00
62575;DHT22;53112;45.602;11.904;2022-08-21T08:05:27;35.60;32.80
62575;DHT22;53112;45.602;11.904;2022-08-21T08:07:54;36.00;33.00
62575;DHT22;53112;45.602;11.904;2022-08-21T08:10:22;36.20;32.70
62575;DHT22;53112;45.602;11.904;2022-08-21T08:12:50;36.20;33.30
62575;DHT22;53112;45.602;11.904;2022-08-21T08:15:21;36.70;32.10
62575;DHT22;53112;45.602;11.904;2022-08-21T08:17:47;36.90;32.60
62575;DHT22;53112;45.602;11.904;2022-08-21T08:20:16;37.20;33.00
62575;DHT22;53112;45.602;11.904;2022-08-21T08:22:42;37.40;33.50
62575;DHT22;53112;45.602;11.904;2022-08-21T08:25:10;37.20;32.80
62575;DHT22;53112;45.602;11.904;2022-08-21T08:27:37;37.20;32.50
62575;DHT22;53112;45.602;11.904;2022-08-21T08:30:05;37.10;33.00
62575;DHT22;53112;45.602;11.904;2022-08-21T08:32:31;36.80;32.40
62575;DHT22;53112;45.602;11.904;2022-08-21T08:34:57;37.20;32.80
62575;DHT22;53112;45.602;11.904;2022-08-21T08:37:23;37.70;31.50
62575;DHT22;53112;45.602;11.904;2022-08-21T08:39:49;38.20;30.10
62575;DHT22;53112;45.602;11.904;2022-08-21T08:42:20;37.90;30.50
62575;DHT22;53112;45.602;11.904;2022-08-21T08:44:50;38.40;31.20
62575;DHT22;53112;45.602;11.904;2022-08-21T08:47:19;38.50;30.20
62575;DHT22;53112;45.602;11.904;2022-08-21T08:52:31;39.30;29.30
62575;DHT22;53112;45.602;11.904;2022-08-21T08:55:13;39.80;29.30
62575;DHT22;53112;45.602;11.904;2022-08-21T08:57:41;40.00;28.10
62575;DHT22;53112;45.602;11.904;2022-08-21T09:00:10;40.50;26.80
62575;DHT22;53112;45.602;11.904;2022-08-21T09:02:42;40.20;27.70
62575;DHT22;53112;45.602;11.904;2022-08-21T09:05:27;40.60;28.00
62575;DHT22;53112;45.602;11.904;2022-08-21T09:19:15;41.70;25.70
62575;DHT22;53112;45.602;11.904;2022-08-21T09:21:55;41.90;25.20
62575;DHT22;53112;45.602;11.904;2022-08-21T09:27:14;41.70;26.00
62575;DHT22;53112;45.602;11.904;2022-08-21T09:29:49;41.80;25.10
62575;DHT22;53112;45.602;11.904;2022-08-21T09:32:29;42.80;25.10
62575;DHT22;53112;45.602;11.904;2022-08-21T09:34:56;43.40;24.30
62575;DHT22;53112;45.602;11.904;2022-08-21T09:37:24;43.50;24.10
62575;DHT22;53112;45.602;11.904;2022-08-21T09:39:50;43.20;23.50
62575;DHT22;53112;45.602;11.904;2022-08-21T09:42:31;42.90;23.80
62575;DHT22;53112;45.602;11.904;2022-08-21T09:45:10;43.00;23.50
62575;DHT22;53112;45.602;11.904;2022-08-21T09:47:36;43.60;21.90
62575;DHT22;53112;45.602;11.904;2022-08-21T09:50:16;43.70;22.30
62575;DHT22;53112;45.602;11.904;2022-08-21T09:52:45;44.50;22.30
62575;DHT22;53112;45.602;11.904;2022-08-21T09:58:39;45.30;22.30
62575;DHT22;53112;45.602;11.904;2022-08-21T10:01:11;45.20;20.70
62575;DHT22;53112;45.602;11.904;2022-08-21T10:03:39;44.50;22.80
62575;DHT22;53112;45.602;11.904;2022-08-21T10:06:07;44.30;21.70
62575;DHT22;53112;45.602;11.904;2022-08-21T10:08:40;45.30;21.30
62575;DHT22;53112;45.602;11.904;2022-08-21T10:11:10;45.00;19.80
62575;DHT22;53112;45.602;11.904;2022-08-21T10:17:03;44.60;20.40
62575;DHT22;53112;45.602;11.904;2022-08-21T10:22:29;45.30;19.30
62575;DHT22;53112;45.602;11.904;2022-08-21T10:25:21;46.30;18.20
62575;DHT22;53112;45.602;11.904;2022-08-21T10:30:56;45.90;18.40
62575;DHT22;53112;45.602;11.904;2022-08-21T10:36:20;47.80;18.60
62575;DHT22;53112;45.602;11.904;2022-08-21T10:44:33;48.00;17.70
62575;DHT22;53112;45.602;11.904;2022-08-21T10:47:32;46.80;18.30
62575;DHT22;53112;45.602;11.904;2022-08-21T10:50:12;47.60;17.20
62575;DHT22;53112;45.602;11.904;2022-08-21T10:55:20;46.20;18.50
62575;DHT22;53112;45.602;11.904;2022-08-21T11:00:45;48.10;17.10
62575;DHT22;53112;45.602;11.904;2022-08-21T11:05:52;47.10;16.10
62575;DHT22;53112;45.602;11.904;2022-08-21T11:08:41;47.60;16.50
62575;DHT22;53112;45.602;11.904;2022-08-21T11:14:09;50.30;14.90
62575;DHT22;53112;45.602;11.904;2022-08-21T11:16:51;50.10;15.30
62575;DHT22;53112;45.602;11.904;2022-08-21T11:19:24;50.90;14.70
62575;DHT22;53112;45.602;11.904;2022-08-21T11:22:11;50.60;14.60
62575;DHT22;53112;45.602;11.904;2022-08-21T11:24:48;51.30;14.60
62575;DHT22;53112;45.602;11.904;2022-08-21T11:29:56;50.60;15.50
62575;DHT22;53112;45.602;11.904;2022-08-21T11:41:18;51.50;14.70
62575;DHT22;53112;45.602;11.904;2022-08-21T11:43:49;52.30;14.00
62575;DHT22;53112;45.602;11.904;2022-08-21T11:57:20;53.40;14.90
62575;DHT22;53112;45.602;11.904;2022-08-21T12:00:03;52.40;14.90
62575;DHT22;53112;45.602;11.904;2022-08-21T12:02:38;51.40;14.10
62575;DHT22;53112;45.602;11.904;2022-08-21T12:05:10;51.70;15.40
62575;DHT22;53112;45.602;11.904;2022-08-21T12:07:42;52.00;14.10
62575;DHT22;53112;45.602;11.904;2022-08-21T12:10:17;51.30;14.10
62575;DHT22;53112;45.602;11.904;2022-08-21T12:12:47;51.80;14.50
62575;DHT22;53112;45.602;11.904;2022-08-21T12:18:18;53.50;12.70
62575;DHT22;53112;45.602;11.904;2022-08-21T12:21:27;53.70;13.10
62575;DHT22;53112;45.602;11.904;2022-08-21T12:24:05;53.40;13.70
62575;DHT22;53112;45.602;11.904;2022-08-21T12:27:00;53.20;13.60
62575;DHT22;53112;45.602;11.904;2022-08-21T12:29:36;52.90;14.40
62575;DHT22;53112;45.602;11.904;2022-08-21T12:32:27;53.60;13.10
62575;DHT22;53112;45.602;11.904;2022-08-21T12:35:31;54.40;13.30
62575;DHT22;53112;45.602;11.904;2022-08-21T12:37:57;52.70;13.40
62575;DHT22;53112;45.602;11.904;2022-08-21T12:40:29;53.40;13.60
62575;DHT22;53112;45.602;11.904;2022-08-21T12:42:59;52.50;13.50
62575;DHT22;53112;45.602;11.904;2022-08-21T12:45:42;53.00;13.60
62575;DHT22;53112;45.602;11.904;2022-08-21T12:48:26;53.60;13.40
62575;DHT22;53112;45.602;11.904;2022-08-21T12:50:56;52.10;14.50
62575;DHT22;53112;45.602;11.904;2022-08-21T12:53:35;53.30;14.10
62575;DHT22;53112;45.602;11.904;2022-08-21T12:56:03;53.50;12.10
62575;DHT22;53112;45.602;11.904;2022-08-21T12:58:31;53.40;13.80
62575;DHT22;53112;45.602;11.904;2022-08-21T13:01:06;52.30;13.80
62575;DHT22;53112;45.602;11.904;2022-08-21T13:03:37;52.80;12.80
62575;DHT22;53112;45.602;11.904;2022-08-21T13:06:05;50.90;15.10
62575;DHT22;53112;45.602;11.904;2022-08-21T13:08:33;52.70;13.80
62575;DHT22;53112;45.602;11.904;2022-08-21T13:11:03;52.50;13.50
62575;DHT22;53112;45.602;11.904;2022-08-21T13:13:31;53.00;13.50
62575;DHT22;53112;45.602;11.904;2022-08-21T13:16:01;52.50;14.10
62575;DHT22;53112;45.602;11.904;2022-08-21T13:18:31;52.90;13.70
62575;DHT22;53112;45.602;11.904;2022-08-21T13:21:29;53.20;13.50
62575;DHT22;53112;45.602;11.904;2022-08-21T13:24:19;51.80;13.70
62575;DHT22;53112;45.602;11.904;2022-08-21T13:26:46;50.70;14.00
62575;DHT22;53112;45.602;11.904;2022-08-21T13:29:15;50.30;15.10
62575;DHT22;53112;45.602;11.904;2022-08-21T13:31:54;50.20;14.90
62575;DHT22;53112;45.602;11.904;2022-08-21T13:34:24;51.00;14.70
62575;DHT22;53112;45.602;11.904;2022-08-21T13:36:54;51.10;14.50
62575;DHT22;53112;45.602;11.904;2022-08-21T13:39:21;50.50;15.20
62575;DHT22;53112;45.602;11.904;2022-08-21T13:41:49;49.40;15.50
62575;DHT22;53112;45.602;11.904;2022-08-21T13:44:32;49.80;15.10
62575;DHT22;53112;45.602;11.904;2022-08-21T13:47:03;50.20;15.50
62575;DHT22;53112;45.602;11.904;2022-08-21T13:49:38;48.10;16.10
62575;DHT22;53112;45.602;11.904;2022-08-21T13:52:14;48.10;16.50
62575;DHT22;53112;45.602;11.904;2022-08-21T13:54:41;47.30;16.50
62575;DHT22;53112;45.602;11.904;2022-08-21T13:57:17;47.60;16.30
62575;DHT22;53112;45.602;11.904;2022-08-21T13:59:43;48.50;15.40
62575;DHT22;53112;45.602;11.904;2022-08-21T14:02:19;48.10;16.30
62575;DHT22;53112;45.602;11.904;2022-08-21T14:04:58;47.50;16.60
62575;DHT22;53112;45.602;11.904;2022-08-21T14:07:35;46.10;17.20
62575;DHT22;53112;45.602;11.904;2022-08-21T14:10:21;46.80;17.40
62575;DHT22;53112;45.602;11.904;2022-08-21T14:12:53;47.00;17.70
62575;DHT22;53112;45.602;11.904;2022-08-21T14:15:24;46.40;17.20
62575;DHT22;53112;45.602;11.904;2022-08-21T14:17:51;46.70;17.70
62575;DHT22;53112;45.602;11.904;2022-08-21T14:20:32;46.10;17.60
62575;DHT22;53112;45.602;11.904;2022-08-21T14:22:58;46.10;17.10
62575;DHT22;53112;45.602;11.904;2022-08-21T14:27:58;45.60;17.20
62575;DHT22;53112;45.602;11.904;2022-08-21T14:30:37;45.60;17.70
62575;DHT22;53112;45.602;11.904;2022-08-21T14:33:09;45.80;17.30
62575;DHT22;53112;45.602;11.904;2022-08-21T14:35:36;46.40;17.20
62575;DHT22;53112;45.602;11.904;2022-08-21T14:38:11;47.00;16.70
62575;DHT22;53112;45.602;11.904;2022-08-21T14:40:37;47.80;16.30
62575;DHT22;53112;45.602;11.904;2022-08-21T14:43:03;47.60;16.20
62575;DHT22;53112;45.602;11.904;2022-08-21T14:45:30;46.90;17.40
62575;DHT22;53112;45.602;11.904;2022-08-21T14:47:58;47.30;16.70
62575;DHT22;53112;45.602;11.904;2022-08-21T14:50:25;47.10;17.40
62575;DHT22;53112;45.602;11.904;2022-08-21T14:52:51;45.80;19.00
62575;DHT22;53112;45.602;11.904;2022-08-21T14:55:18;45.60;18.60
62575;DHT22;53112;45.602;11.904;2022-08-21T14:57:52;44.80;18.70
62575;DHT22;53112;45.602;11.904;2022-08-21T15:00:21;44.90;19.00
62575;DHT22;53112;45.602;11.904;2022-08-21T15:02:52;45.20;18.80
62575;DHT22;53112;45.602;11.904;2022-08-21T15:05:18;45.80;17.80
62575;DHT22;53112;45.602;11.904;2022-08-21T15:07:44;45.40;18.80
62575;DHT22;53112;45.602;11.904;2022-08-21T15:10:11;46.20;18.00
62575;DHT22;53112;45.602;11.904;2022-08-21T15:12:44;46.40;18.70
62575;DHT22;53112;45.602;11.904;2022-08-21T15:15:10;46.50;17.50
62575;DHT22;53112;45.602;11.904;2022-08-21T15:17:36;45.70;18.60
62575;DHT22;53112;45.602;11.904;2022-08-21T15:20:03;46.10;17.90
62575;DHT22;53112;45.602;11.904;2022-08-21T15:22:31;46.00;17.80
62575;DHT22;53112;45.602;11.904;2022-08-21T15:24:57;46.10;18.00
62575;DHT22;53112;45.602;11.904;2022-08-21T15:27:23;45.50;20.40
62575;DHT22;53112;45.602;11.904;2022-08-21T15:29:49;44.80;21.30
62575;DHT22;53112;45.602;11.904;2022-08-21T15:32:24;44.00;21.80
62575;DHT22;53112;45.602;11.904;2022-08-21T15:34:52;43.50;22.60
62575;DHT22;53112;45.602;11.904;2022-08-21T15:37:19;44.00;21.90
62575;DHT22;53112;45.602;11.904;2022-08-21T15:39:45;43.90;21.20
62575;DHT22;53112;45.602;11.904;2022-08-21T15:42:11;44.40;21.20
62575;DHT22;53112;45.602;11.904;2022-08-21T15:44:39;44.60;21.30
62575;DHT22;53112;45.602;11.904;2022-08-21T15:47:11;44.70;21.00
62575;DHT22;53112;45.602;11.904;2022-08-21T15:49:38;45.20;20.80
62575;DHT22;53112;45.602;11.904;2022-08-21T15:52:05;44.70;20.30
62575;DHT22;53112;45.602;11.904;2022-08-21T15:54:31;44.10;20.90
62575;DHT22;53112;45.602;11.904;2022-08-21T15:56:57;45.00;20.40
62575;DHT22;53112;45.602;11.904;2022-08-21T15:59:23;44.90;20.30
62575;DHT22;53112;45.602;11.904;2022-08-21T16:01:51;44.50;21.00
62575;DHT22;53112;45.602;11.904;2022-08-21T16:04:27;44.30;20.70
62575;DHT22;53112;45.602;11.904;2022-08-21T16:06:54;43.60;21.60
62575;DHT22;53112;45.602;11.904;2022-08-21T16:09:21;42.90;22.30
62575;DHT22;53112;45.602;11.904;2022-08-21T16:11:47;42.20;22.80
62575;DHT22;53112;45.602;11.904;2022-08-21T16:14:14;41.20;23.70
62575;DHT22;53112;45.602;11.904;2022-08-21T16:16:42;40.50;24.90
62575;DHT22;53112;45.602;11.904;2022-08-21T16:19:10;40.30;26.10
62575;DHT22;53112;45.602;11.904;2022-08-21T16:21:37;39.90;25.40
62575;DHT22;53112;45.602;11.904;2022-08-21T16:24:03;39.40;25.80
62575;DHT22;53112;45.602;11.904;2022-08-21T16:26:29;39.00;26.40
62575;DHT22;53112;45.602;11.904;2022-08-21T16:28:58;38.80;26.80
62575;DHT22;53112;45.602;11.904;2022-08-21T16:31:25;38.20;26.60
62575;DHT22;53112;45.602;11.904;2022-08-21T16:33:53;37.90;27.00
62575;DHT22;53112;45.602;11.904;2022-08-21T16:36:20;38.10;27.30
62575;DHT22;53112;45.602;11.904;2022-08-21T16:38:47;38.40;27.00
62575;DHT22;53112;45.602;11.904;2022-08-21T16:41:17;38.60;26.90
62575;DHT22;53112;45.602;11.904;2022-08-21T16:43:44;38.50;26.90
62575;DHT22;53112;45.602;11.904;2022-08-21T16:46:12;38.80;26.60